Time;durP1;ratioP1;P1;durP2;ratioP2;P2;SDS_P1;SDS_P2;PMS_P1;PMS_P2;Temp;Humidity;BMP_temperature;BMP_pressure;BME280_temperature;BME280_humidity;BME280_pressure;Samples;Min_cycle;Max_cycle;Signal;HPM_P1;HPM_P2
2023/12/02 00:00:26;;;;;;;2.40;0.70;;;;;;;;;;5167930;28;20085;-62
2023/12/02 00:02:57;;;;;;;3.30;1.00;;;;;;;;;;5167455;28;20037;-63
2023/12/02 00:05:29;;;;;;;2.38;0.98;;;;;;;;;;5167445;28;20546;-63
2023/12/02 00:08:00;;;;;;;2.97;0.93;;;;;;;;;;5172701;28;20580;-62
2023/12/02 00:10:31;;;;;;;1.60;0.82;;;;;;;;;;5172746;28;20046;-61
2023/12/02 00:13:02;;;;;;;4.70;0.90;;;;;;;;;;5168454;28;20041;-61
2023/12/02 00:15:33;;;;;;;5.30;1.88;;;;;;;;;;5168231;28;20069;-61
2023/12/02 00:18:04;;;;;;;2.65;1.05;;;;;;;;;;5168034;28;20113;-62
2023/12/02 00:20:35;;;;;;;3.60;1.13;;;;;;;;;;5151207;28;20041;-61
2023/12/02 00:23:06;;;;;;;2.28;1.13;;;;;;;;;;5157794;28;20046;-61
2023/12/02 00:25:37;;;;;;;2.83;0.70;;;;;;;;;;5157152;28;20045;-61
2023/12/02 00:28:09;;;;;;;2.83;0.82;;;;;;;;;;5167444;28;20068;-61
2023/12/02 00:30:40;;;;;;;2.85;0.77;;;;;;;;;;5167148;28;20101;-62
2023/12/02 00:33:11;;;;;;;2.63;0.68;;;;;;;;;;5150989;28;20396;-61
2023/12/02 00:35:42;;;;;;;2.03;0.75;;;;;;;;;;5167392;28;20034;-62
2023/12/02 00:38:13;;;;;;;1.85;0.98;;;;;;;;;;5164525;28;20623;-61
2023/12/02 00:40:44;;;;;;;1.95;0.60;;;;;;;;;;5177414;28;20107;-62
2023/12/02 00:43:15;;;;;;;4.70;0.80;;;;;;;;;;5170003;28;20510;-61
2023/12/02 00:45:47;;;;;;;2.30;0.90;;;;;;;;;;5166458;28;20278;-61
2023/12/02 00:48:18;;;;;;;3.60;0.90;;;;;;;;;;5167165;28;20041;-60
2023/12/02 00:50:49;;;;;;;2.33;0.98;;;;;;;;;;5166810;28;20069;-61
2023/12/02 00:53:20;;;;;;;3.63;1.10;;;;;;;;;;5149975;28;20080;-61
2023/12/02 00:55:51;;;;;;;4.22;1.13;;;;;;;;;;5166721;28;20050;-61
2023/12/02 00:58:23;;;;;;;2.80;0.90;;;;;;;;;;5167130;28;20044;-60
2023/12/02 01:00:54;;;;;;;1.80;0.93;;;;;;;;;;5166891;28;20060;-60
2023/12/02 01:03:25;;;;;;;2.50;1.02;;;;;;;;;;5167078;28;20061;-60
2023/12/02 01:05:56;;;;;;;3.00;0.68;;;;;;;;;;5166948;28;20045;-59
2023/12/02 01:08:27;;;;;;;5.50;1.02;;;;;;;;;;5167217;28;20388;-60
2023/12/02 01:10:58;;;;;;;1.35;0.82;;;;;;;;;;5166895;28;20141;-59
2023/12/02 01:13:29;;;;;;;3.53;0.88;;;;;;;;;;5167209;28;20054;-60
2023/12/02 01:16:00;;;;;;;3.15;0.82;;;;;;;;;;5167089;28;20041;-60
2023/12/02 01:18:31;;;;;;;3.33;0.68;;;;;;;;;;5174906;28;20056;-61
2023/12/02 01:21:03;;;;;;;1.98;0.75;;;;;;;;;;5166889;28;20481;-60
2023/12/02 01:23:34;;;;;;;1.58;0.70;;;;;;;;;;5175203;28;20056;-60
2023/12/02 01:26:06;;;;;;;3.47;0.80;;;;;;;;;;5167024;28;20463;-61
2023/12/02 01:28:37;;;;;;;2.78;1.15;;;;;;;;;;5166234;28;20042;-61
2023/12/02 01:31:08;;;;;;;2.72;0.85;;;;;;;;;;5168808;28;20372;-62
2023/12/02 01:33:39;;;;;;;3.85;1.20;;;;;;;;;;5167475;28;20375;-62
2023/12/02 01:36:13;;;;;;;3.45;1.35;;;;;;;;;;5166824;28;20514;-62
2023/12/02 01:38:45;;;;;;;1.75;0.90;;;;;;;;;;5159177;28;20096;-62
2023/12/02 01:41:16;;;;;;;1.38;0.70;;;;;;;;;;5181047;28;20042;-62
2023/12/02 01:43:47;;;;;;;1.33;0.57;;;;;;;;;;5166258;28;20409;-62
2023/12/02 01:46:19;;;;;;;1.38;0.80;;;;;;;;;;5166083;28;20100;-62
2023/12/02 01:48:50;;;;;;;2.22;0.52;;;;;;;;;;5166530;28;20491;-62
2023/12/02 01:51:21;;;;;;;3.95;0.63;;;;;;;;;;5173695;28;20042;-62
2023/12/02 01:53:53;;;;;;;2.28;0.77;;;;;;;;;;5166239;28;20554;-62
2023/12/02 01:56:24;;;;;;;2.15;0.77;;;;;;;;;;5165936;28;20594;-61
2023/12/02 01:58:55;;;;;;;3.97;0.52;;;;;;;;;;5165258;28;20042;-61
2023/12/02 02:01:26;;;;;;;1.90;0.82;;;;;;;;;;5165982;28;20034;-61
2023/12/02 02:03:59;;;;;;;0.50;0.45;;;;;;;;;;5165807;28;20435;-61
2023/12/02 02:06:30;;;;;;;1.95;0.70;;;;;;;;;;5166031;28;20114;-61
2023/12/02 02:09:01;;;;;;;1.48;0.60;;;;;;;;;;5165955;28;20488;-61
2023/12/02 02:11:32;;;;;;;2.40;0.70;;;;;;;;;;5166011;28;20100;-60
2023/12/02 02:14:03;;;;;;;1.58;0.60;;;;;;;;;;5165313;28;20034;-60
2023/12/02 02:16:34;;;;;;;3.28;0.70;;;;;;;;;;5165933;28;20140;-61
2023/12/02 02:19:06;;;;;;;2.22;0.63;;;;;;;;;;5166736;28;20106;-61
2023/12/02 02:21:37;;;;;;;3.03;0.60;;;;;;;;;;5165795;28;20112;-60
2023/12/02 02:24:08;;;;;;;1.40;0.50;;;;;;;;;;5168131;28;20041;-60
2023/12/02 02:26:39;;;;;;;1.00;0.60;;;;;;;;;;5165429;28;20052;-61
2023/12/02 02:29:11;;;;;;;3.45;0.90;;;;;;;;;;5168409;28;20072;-59
2023/12/02 02:31:42;;;;;;;4.78;0.98;;;;;;;;;;5165394;28;20073;-60
2023/12/02 02:34:13;;;;;;;6.50;0.80;;;;;;;;;;5167883;28;20076;-62
2023/12/02 02:36:45;;;;;;;1.38;0.47;;;;;;;;;;5152857;28;20087;-62
2023/12/02 02:39:16;;;;;;;1.63;0.70;;;;;;;;;;5157176;28;20049;-62
2023/12/02 02:41:47;;;;;;;1.65;0.68;;;;;;;;;;5165333;28;20064;-61
2023/12/02 02:44:18;;;;;;;1.38;0.60;;;;;;;;;;5165308;28;20050;-62
2023/12/02 02:46:49;;;;;;;1.80;0.68;;;;;;;;;;5165249;28;20037;-63
2023/12/02 02:49:21;;;;;;;3.55;0.50;;;;;;;;;;5165138;28;20116;-60
2023/12/02 02:51:52;;;;;;;2.78;0.70;;;;;;;;;;5171727;28;20389;-62
2023/12/02 02:54:23;;;;;;;1.83;0.70;;;;;;;;;;5165420;28;20476;-62
2023/12/02 02:56:54;;;;;;;5.07;0.60;;;;;;;;;;5165535;28;20069;-62
2023/12/02 02:59:26;;;;;;;2.25;1.00;;;;;;;;;;5165331;28;20488;-61
2023/12/02 03:01:57;;;;;;;3.25;0.90;;;;;;;;;;5159894;28;20579;-62
2023/12/02 03:04:28;;;;;;;2.60;0.60;;;;;;;;;;5166160;28;20144;-61
2023/12/02 03:07:00;;;;;;;0.95;0.50;;;;;;;;;;5164652;28;20052;-60
2023/12/02 03:09:31;;;;;;;2.73;0.77;;;;;;;;;;5166766;28;20125;-62
2023/12/02 03:12:02;;;;;;;4.75;0.93;;;;;;;;;;5168947;28;20052;-61
2023/12/02 03:14:33;;;;;;;1.13;0.52;;;;;;;;;;5153070;28;20076;-61
2023/12/02 03:17:05;;;;;;;2.45;0.80;;;;;;;;;;5169646;28;20603;-62
2023/12/02 03:19:36;;;;;;;1.13;0.60;;;;;;;;;;5168297;28;20408;-61
2023/12/02 03:22:07;;;;;;;1.98;0.80;;;;;;;;;;5152853;28;20050;-61
2023/12/02 03:24:39;;;;;;;1.90;0.93;;;;;;;;;;5168701;28;20056;-62
2023/12/02 03:27:11;;;;;;;2.70;0.50;;;;;;;;;;5169327;28;20048;-61
2023/12/02 03:29:42;;;;;;;1.43;0.60;;;;;;;;;;5162879;28;20500;-62
2023/12/02 03:32:13;;;;;;;2.45;0.77;;;;;;;;;;5178379;28;20041;-62
2023/12/02 03:34:44;;;;;;;2.97;0.60;;;;;;;;;;5168321;28;20069;-61
2023/12/02 03:37:15;;;;;;;2.80;0.80;;;;;;;;;;5186360;28;20419;-61
2023/12/02 03:39:46;;;;;;;2.00;0.65;;;;;;;;;;5168574;28;20046;-62
2023/12/02 03:42:17;;;;;;;2.78;0.52;;;;;;;;;;5170323;28;20069;-61
2023/12/02 03:44:49;;;;;;;1.65;0.52;;;;;;;;;;5168913;28;20504;-61
2023/12/02 03:47:20;;;;;;;2.45;0.55;;;;;;;;;;5170450;28;20042;-62
2023/12/02 03:49:51;;;;;;;1.75;0.60;;;;;;;;;;5168471;28;20038;-62
2023/12/02 03:52:22;;;;;;;1.05;0.38;;;;;;;;;;5169050;28;20490;-62
2023/12/02 03:54:53;;;;;;;1.05;0.38;;;;;;;;;;5168277;28;20037;-61
2023/12/02 03:57:24;;;;;;;1.20;0.50;;;;;;;;;;5168391;28;20530;-61
2023/12/02 03:59:55;;;;;;;3.22;0.73;;;;;;;;;;5168621;28;20050;-61
2023/12/02 04:02:26;;;;;;;1.60;0.60;;;;;;;;;;5178805;28;20042;-61
2023/12/02 04:04:57;;;;;;;1.13;0.60;;;;;;;;;;5168733;28;20373;-62
2023/12/02 04:07:28;;;;;;;1.70;0.70;;;;;;;;;;5167892;28;20042;-61
2023/12/02 04:10:00;;;;;;;2.95;0.90;;;;;;;;;;5163206;28;20146;-61
2023/12/02 04:12:31;;;;;;;3.05;0.73;;;;;;;;;;5167914;28;20046;-62
2023/12/02 04:15:02;;;;;;;2.25;0.70;;;;;;;;;;5168223;28;20038;-61
2023/12/02 04:17:34;;;;;;;2.37;0.70;;;;;;;;;;5167876;28;20080;-60
2023/12/02 04:20:10;;;;;;;1.45;0.63;;;;;;;;;;5175082;28;20045;-60
2023/12/02 04:22:42;;;;;;;3.00;1.00;;;;;;;;;;5143841;28;20041;-61
2023/12/02 04:25:13;;;;;;;1.37;0.80;;;;;;;;;;5158470;28;20042;-61
2023/12/02 04:27:46;;;;;;;2.50;0.77;;;;;;;;;;5168087;28;20073;-61
2023/12/02 04:30:17;;;;;;;1.70;0.93;;;;;;;;;;5167765;28;20121;-60
2023/12/02 04:32:48;;;;;;;1.88;0.93;;;;;;;;;;5167712;28;20046;-62
2023/12/02 04:35:20;;;;;;;1.73;0.93;;;;;;;;;;5168186;28;20473;-61
2023/12/02 04:37:51;;;;;;;1.85;0.75;;;;;;;;;;5167346;28;20053;-61
2023/12/02 04:40:22;;;;;;;1.57;0.77;;;;;;;;;;5167376;28;20041;-61
2023/12/02 04:42:54;;;;;;;2.70;1.07;;;;;;;;;;5167388;28;20271;-59
2023/12/02 04:45:25;;;;;;;3.92;1.42;;;;;;;;;;5167722;28;20125;-59
2023/12/02 04:47:56;;;;;;;1.92;0.82;;;;;;;;;;5167902;28;20411;-60
2023/12/02 04:50:27;;;;;;;1.45;0.70;;;;;;;;;;5167138;28;20109;-60
2023/12/02 04:52:59;;;;;;;4.00;1.23;;;;;;;;;;5167132;28;20108;-59
2023/12/02 04:55:30;;;;;;;2.63;1.17;;;;;;;;;;5167384;28;20038;-60
2023/12/02 04:58:01;;;;;;;2.63;1.20;;;;;;;;;;5167185;28;20045;-61
2023/12/02 05:00:32;;;;;;;4.90;1.17;;;;;;;;;;5167746;28;20037;-61
2023/12/02 05:03:03;;;;;;;2.28;0.90;;;;;;;;;;5175358;28;20155;-61
2023/12/02 05:05:34;;;;;;;1.85;0.85;;;;;;;;;;5150651;28;20038;-61
2023/12/02 05:08:05;;;;;;;3.08;0.90;;;;;;;;;;5174912;28;20099;-61
2023/12/02 05:10:39;;;;;;;4.07;0.85;;;;;;;;;;5153107;28;20121;-60
2023/12/02 05:13:10;;;;;;;3.22;1.17;;;;;;;;;;5167253;28;20387;-60
2023/12/02 05:15:41;;;;;;;2.20;0.73;;;;;;;;;;5167061;28;20045;-60
2023/12/02 05:18:12;;;;;;;4.65;0.80;;;;;;;;;;5171983;28;20389;-61
2023/12/02 05:20:43;;;;;;;3.33;0.70;;;;;;;;;;5169355;28;20069;-62
2023/12/02 05:23:14;;;;;;;2.90;0.93;;;;;;;;;;5166616;28;20056;-63
2023/12/02 05:25:46;;;;;;;1.92;0.77;;;;;;;;;;5166836;28;20049;-63
2023/12/02 05:28:18;;;;;;;1.85;0.77;;;;;;;;;;5167996;28;20500;-60
2023/12/02 05:30:50;;;;;;;2.55;0.77;;;;;;;;;;5165718;28;20050;-60
2023/12/02 05:33:22;;;;;;;1.25;0.70;;;;;;;;;;5165481;28;20129;-60
2023/12/02 05:35:53;;;;;;;2.83;1.02;;;;;;;;;;5166726;28;20050;-59
2023/12/02 05:38:24;;;;;;;2.45;0.50;;;;;;;;;;5166356;28;20037;-60
2023/12/02 05:40:55;;;;;;;2.35;0.70;;;;;;;;;;5173854;28;20131;-59
2023/12/02 05:43:26;;;;;;;2.03;0.77;;;;;;;;;;5166318;28;20096;-61
2023/12/02 05:45:57;;;;;;;2.30;0.77;;;;;;;;;;5166522;28;20136;-60
2023/12/02 05:48:28;;;;;;;3.08;0.85;;;;;;;;;;5169582;28;20041;-63
2023/12/02 05:51:03;;;;;;;5.57;0.70;;;;;;;;;;5170271;28;20034;-63
2023/12/02 05:53:34;;;;;;;1.88;0.90;;;;;;;;;;5166530;28;20576;-63
2023/12/02 05:56:05;;;;;;;1.70;0.70;;;;;;;;;;5166109;28;20042;-62
2023/12/02 05:58:36;;;;;;;1.27;0.50;;;;;;;;;;5166286;28;20042;-63
2023/12/02 06:01:08;;;;;;;1.63;0.43;;;;;;;;;;5168232;28;20473;-62
2023/12/02 06:03:39;;;;;;;2.10;0.85;;;;;;;;;;5167118;28;20038;-62
2023/12/02 06:06:11;;;;;;;2.60;0.50;;;;;;;;;;5167035;28;20045;-62
2023/12/02 06:08:42;;;;;;;5.43;0.82;;;;;;;;;;5167548;28;20149;-60
2023/12/02 06:11:13;;;;;;;1.77;0.80;;;;;;;;;;5165504;28;20038;-61
2023/12/02 06:13:45;;;;;;;1.50;0.57;;;;;;;;;;5165845;28;20049;-62
2023/12/02 06:16:16;;;;;;;2.33;0.50;;;;;;;;;;5177061;28;20104;-62
2023/12/02 06:18:47;;;;;;;3.00;0.60;;;;;;;;;;5165649;28;20096;-62
2023/12/02 06:21:18;;;;;;;1.65;0.70;;;;;;;;;;5166271;28;20042;-63
2023/12/02 06:23:49;;;;;;;4.25;0.73;;;;;;;;;;5164867;28;20053;-60
2023/12/02 06:26:22;;;;;;;1.95;0.75;;;;;;;;;;5165889;28;20049;-61
2023/12/02 06:28:53;;;;;;;2.65;0.75;;;;;;;;;;5165304;28;20074;-60
2023/12/02 06:31:24;;;;;;;1.95;0.60;;;;;;;;;;5165783;28;20045;-60
2023/12/02 06:33:55;;;;;;;1.20;0.70;;;;;;;;;;5164553;28;20144;-60
2023/12/02 06:36:26;;;;;;;1.88;0.77;;;;;;;;;;5168966;28;20034;-60
2023/12/02 06:38:57;;;;;;;1.88;0.70;;;;;;;;;;5165831;28;20503;-61
2023/12/02 06:41:29;;;;;;;2.20;1.15;;;;;;;;;;5165628;28;20077;-60
2023/12/02 06:44:00;;;;;;;1.75;0.32;;;;;;;;;;5168912;28;20445;-61
2023/12/02 06:46:31;;;;;;;1.35;0.63;;;;;;;;;;5165498;28;20049;-60
2023/12/02 06:49:02;;;;;;;0.90;0.43;;;;;;;;;;5172376;28;20164;-60
2023/12/02 06:51:34;;;;;;;2.85;0.70;;;;;;;;;;5165660;28;20476;-59
2023/12/02 06:54:05;;;;;;;1.52;0.70;;;;;;;;;;5165468;28;20048;-59
2023/12/02 06:56:36;;;;;;;2.88;0.88;;;;;;;;;;5165069;28;20077;-59
2023/12/02 06:59:07;;;;;;;1.92;0.65;;;;;;;;;;5165979;28;20085;-59
2023/12/02 07:01:40;;;;;;;1.42;0.45;;;;;;;;;;5165153;28;20183;-60
2023/12/02 07:04:11;;;;;;;2.20;0.60;;;;;;;;;;5153908;28;20049;-60
2023/12/02 07:06:42;;;;;;;1.52;0.63;;;;;;;;;;5165359;28;20049;-60
2023/12/02 07:09:13;;;;;;;2.05;0.80;;;;;;;;;;5164394;28;20096;-60
2023/12/02 07:11:44;;;;;;;2.33;0.50;;;;;;;;;;5148606;28;20048;-60
2023/12/02 07:14:15;;;;;;;1.77;0.67;;;;;;;;;;5149783;28;20038;-60
2023/12/02 07:16:47;;;;;;;1.65;0.70;;;;;;;;;;5165501;28;20345;-60
2023/12/02 07:19:18;;;;;;;3.25;0.60;;;;;;;;;;5178519;28;20492;-61
2023/12/02 07:21:49;;;;;;;4.00;1.02;;;;;;;;;;5165075;28;20100;-59
2023/12/02 07:24:20;;;;;;;2.95;1.00;;;;;;;;;;5170367;28;20042;-60
2023/12/02 07:26:51;;;;;;;2.97;1.07;;;;;;;;;;5165252;28;20451;-60
2023/12/02 07:29:23;;;;;;;2.35;1.65;;;;;;;;;;5164888;28;20283;-59
2023/12/02 07:31:54;;;;;;;1.90;0.77;;;;;;;;;;5167301;28;20488;-59
2023/12/02 07:34:25;;;;;;;2.08;0.80;;;;;;;;;;5164793;28;20049;-60
2023/12/02 07:36:56;;;;;;;2.58;0.80;;;;;;;;;;5164977;28;20093;-59
2023/12/02 07:39:27;;;;;;;1.92;0.85;;;;;;;;;;5164937;28;20076;-59
2023/12/02 07:41:58;;;;;;;3.28;0.90;;;;;;;;;;5165278;28;20396;-59
2023/12/02 07:44:29;;;;;;;4.18;1.08;;;;;;;;;;5174489;28;20046;-61
2023/12/02 07:47:00;;;;;;;2.42;0.55;;;;;;;;;;5165020;28;20137;-61
2023/12/02 07:49:32;;;;;;;4.82;1.15;;;;;;;;;;5176585;28;20056;-60
2023/12/02 07:52:03;;;;;;;3.72;0.93;;;;;;;;;;5154755;28;20061;-59
2023/12/02 07:54:34;;;;;;;1.23;0.80;;;;;;;;;;5164764;28;20038;-60
2023/12/02 07:57:05;;;;;;;3.17;1.00;;;;;;;;;;5170675;28;20033;-60
2023/12/02 07:59:36;;;;;;;4.45;0.85;;;;;;;;;;5172560;28;20038;-60
2023/12/02 08:02:08;;;;;;;3.53;0.85;;;;;;;;;;5168749;28;20042;-60
2023/12/02 08:04:39;;;;;;;2.67;0.60;;;;;;;;;;5170398;28;20046;-60
2023/12/02 08:07:10;;;;;;;3.67;0.80;;;;;;;;;;5176880;28;20045;-63
2023/12/02 08:09:41;;;;;;;4.13;0.70;;;;;;;;;;5168025;28;20519;-59
2023/12/02 08:12:12;;;;;;;2.08;0.65;;;;;;;;;;5172192;28;20348;-59
2023/12/02 08:14:43;;;;;;;3.15;0.88;;;;;;;;;;5156271;28;20382;-59
2023/12/02 08:17:15;;;;;;;2.78;0.60;;;;;;;;;;5174467;28;20029;-59
2023/12/02 08:19:46;;;;;;;2.15;0.80;;;;;;;;;;5163119;28;20049;-59
2023/12/02 08:22:21;;;;;;;1.85;0.70;;;;;;;;;;5174670;28;20042;-60
2023/12/02 08:24:52;;;;;;;2.47;0.80;;;;;;;;;;5168066;28;20049;-59
2023/12/02 08:27:24;;;;;;;0.90;0.60;;;;;;;;;;5175950;28;20038;-59
2023/12/02 08:29:55;;;;;;;2.75;0.95;;;;;;;;;;5169176;28;20103;-59
2023/12/02 08:32:26;;;;;;;5.13;1.20;;;;;;;;;;5168347;28;20049;-59
2023/12/02 08:34:57;;;;;;;1.95;0.90;;;;;;;;;;5158565;28;20033;-59
2023/12/02 08:37:28;;;;;;;1.25;0.68;;;;;;;;;;5168039;28;20164;-59
2023/12/02 08:40:02;;;;;;;1.77;0.70;;;;;;;;;;5167892;28;20033;-59
2023/12/02 08:42:33;;;;;;;2.80;1.17;;;;;;;;;;5170145;28;20397;-59
2023/12/02 08:45:04;;;;;;;3.60;1.27;;;;;;;;;;5154057;28;20080;-58
2023/12/02 08:47:36;;;;;;;2.87;1.10;;;;;;;;;;5158042;28;20080;-58
2023/12/02 08:50:07;;;;;;;1.58;0.70;;;;;;;;;;5167630;28;20045;-57
2023/12/02 08:52:38;;;;;;;2.33;0.80;;;;;;;;;;5171894;28;20357;-57
2023/12/02 08:55:09;;;;;;;3.28;1.02;;;;;;;;;;5167939;28;20321;-57
2023/12/02 08:57:40;;;;;;;2.22;0.85;;;;;;;;;;5171529;28;20113;-58
2023/12/02 09:00:12;;;;;;;1.73;0.82;;;;;;;;;;5169671;28;20109;-58
2023/12/02 09:02:43;;;;;;;3.35;1.25;;;;;;;;;;5149751;28;20041;-57
2023/12/02 09:05:14;;;;;;;2.85;1.40;;;;;;;;;;5169729;28;20038;-57
2023/12/02 09:07:45;;;;;;;2.00;0.90;;;;;;;;;;5170489;28;20140;-57
2023/12/02 09:10:17;;;;;;;1.92;0.80;;;;;;;;;;5164898;28;20044;-58
2023/12/02 09:12:48;;;;;;;3.13;0.70;;;;;;;;;;5166699;28;20037;-57
2023/12/02 09:15:19;;;;;;;3.05;0.75;;;;;;;;;;5175309;28;20037;-58
2023/12/02 09:17:50;;;;;;;3.63;0.90;;;;;;;;;;5178659;28;20046;-58
2023/12/02 09:20:40;;;;;;;2.08;0.77;;;;;;;;;;5166028;28;20562;-58
2023/12/02 09:23:12;;;;;;;1.52;0.65;;;;;;;;;;5165338;28;20140;-60
2023/12/02 09:25:43;;;;;;;2.25;0.70;;;;;;;;;;5150424;28;20149;-59
2023/12/02 09:28:33;;;;;;;2.45;0.80;;;;;;;;;;5171235;28;20528;-58
2023/12/02 09:31:08;;;;;;;0.95;0.75;;;;;;;;;;5173962;28;20563;-58
2023/12/02 09:33:39;;;;;;;2.10;0.90;;;;;;;;;;5175214;28;20042;-61
2023/12/02 09:36:29;;;;;;;2.17;0.93;;;;;;;;;;5174254;28;20084;-59
2023/12/02 09:39:20;;;;;;;1.50;1.15;;;;;;;;;;5165678;28;20075;-63
2023/12/02 09:41:54;;;;;;;4.43;0.80;;;;;;;;;;5169854;28;20469;-63
2023/12/02 09:44:35;;;;;;;2.65;0.80;;;;;;;;;;5173176;28;20120;-63
2023/12/02 09:47:17;;;;;;;3.60;1.48;;;;;;;;;;5166599;28;20096;-64
2023/12/02 09:50:07;;;;;;;7.72;0.75;;;;;;;;;;5168973;28;20052;-61
2023/12/02 09:52:59;;;;;;;3.22;0.80;;;;;;;;;;5149997;28;20050;-65
2023/12/02 09:56:00;;;;;;;5.68;1.13;;;;;;;;;;5169854;28;20410;-65
2023/12/02 09:58:37;;;;;;;1.83;0.80;;;;;;;;;;5155897;28;20480;-63
2023/12/02 10:01:13;;;;;;;1.73;0.65;;;;;;;;;;5169112;28;20038;-61
2023/12/02 10:04:13;;;;;;;3.13;1.05;;;;;;;;;;5166909;28;20034;-62
2023/12/02 10:06:50;;;;;;;1.00;0.45;;;;;;;;;;5087921;28;20350;-62
2023/12/02 10:09:27;;;;;;;2.40;0.60;;;;;;;;;;5166083;28;20037;-62
2023/12/02 10:12:11;;;;;;;2.90;0.77;;;;;;;;;;5165702;28;20049;-61
2023/12/02 10:14:45;;;;;;;4.63;0.98;;;;;;;;;;5157705;28;20038;-62
2023/12/02 10:17:17;;;;;;;1.58;0.57;;;;;;;;;;5175891;28;20091;-62
2023/12/02 10:19:53;;;;;;;1.58;0.80;;;;;;;;;;5175231;28;20038;-62
2023/12/02 10:22:27;;;;;;;1.77;0.70;;;;;;;;;;5177072;28;20053;-62
2023/12/02 10:24:58;;;;;;;3.53;0.60;;;;;;;;;;5168865;28;20400;-62
2023/12/02 10:27:30;;;;;;;1.10;0.50;;;;;;;;;;5166865;28;20030;-62
2023/12/02 10:30:01;;;;;;;3.30;0.55;;;;;;;;;;5165794;28;20045;-59
2023/12/02 10:32:48;;;;;;;1.38;0.57;;;;;;;;;;5165665;28;20539;-60
2023/12/02 10:35:38;;;;;;;1.20;0.50;;;;;;;;;;5165992;28;20032;-59
2023/12/02 10:38:23;;;;;;;1.08;0.40;;;;;;;;;;5166214;28;20095;-58
2023/12/02 10:41:03;;;;;;;0.75;0.40;;;;;;;;;;5165856;28;20129;-58
2023/12/02 10:43:39;;;;;;;1.10;0.50;;;;;;;;;;5172989;28;20443;-57
2023/12/02 10:46:11;;;;;;;1.88;0.68;;;;;;;;;;5170324;28;20038;-58
2023/12/02 10:48:43;;;;;;;1.60;0.60;;;;;;;;;;5162310;28;20038;-58
2023/12/02 10:51:14;;;;;;;1.65;0.70;;;;;;;;;;5173624;28;20564;-58
2023/12/02 10:53:47;;;;;;;4.57;1.30;;;;;;;;;;5167032;28;20124;-58
2023/12/02 10:56:23;;;;;;;2.40;1.20;;;;;;;;;;5165738;28;20392;-59
2023/12/02 10:58:55;;;;;;;5.35;2.38;;;;;;;;;;5174447;28;20045;-58
2023/12/02 11:01:27;;;;;;;2.08;1.00;;;;;;;;;;5166908;28;20046;-60
2023/12/02 11:04:02;;;;;;;1.80;0.50;;;;;;;;;;5156706;28;20133;-60
2023/12/02 11:06:37;;;;;;;3.20;0.90;;;;;;;;;;5153914;28;20048;-60
2023/12/02 11:09:18;;;;;;;1.65;0.60;;;;;;;;;;5197960;28;20046;-61
2023/12/02 11:11:56;;;;;;;2.65;1.15;;;;;;;;;;5167851;28;20045;-59
2023/12/02 11:14:31;;;;;;;1.30;0.50;;;;;;;;;;5168567;28;20037;-59
2023/12/02 11:17:02;;;;;;;2.05;0.88;;;;;;;;;;5171901;28;20045;-59
2023/12/02 11:19:43;;;;;;;1.98;0.70;;;;;;;;;;5169733;28;20038;-59
2023/12/02 11:22:25;;;;;;;2.25;1.05;;;;;;;;;;5152482;28;20066;-59
2023/12/02 11:25:11;;;;;;;1.73;0.70;;;;;;;;;;5165779;28;20090;-58
2023/12/02 11:27:56;;;;;;;3.28;0.80;;;;;;;;;;5166066;28;20045;-58
2023/12/02 11:30:27;;;;;;;2.35;0.80;;;;;;;;;;5152545;28;20041;-58
2023/12/02 11:33:01;;;;;;;2.88;1.00;;;;;;;;;;5170257;28;20037;-59
2023/12/02 11:35:52;;;;;;;3.20;1.40;;;;;;;;;;5153385;28;20448;-58
2023/12/02 11:38:28;;;;;;;4.57;1.50;;;;;;;;;;5186592;28;20468;-58
2023/12/02 11:41:21;;;;;;;4.72;1.60;;;;;;;;;;5169520;28;20056;-56
2023/12/02 11:43:58;;;;;;;2.38;1.48;;;;;;;;;;5184969;28;20404;-56
2023/12/02 11:46:31;;;;;;;4.45;1.70;;;;;;;;;;5186094;28;20046;-55
2023/12/02 11:49:08;;;;;;;2.40;1.40;;;;;;;;;;5169615;28;20460;-56
2023/12/02 11:51:57;;;;;;;2.10;1.60;;;;;;;;;;5169081;28;20042;-57
2023/12/02 11:54:51;;;;;;;3.38;2.00;;;;;;;;;;5169796;28;20046;-56
2023/12/02 11:57:29;;;;;;;8.07;2.40;;;;;;;;;;5149957;28;20057;-56
2023/12/02 12:00:06;;;;;;;5.30;1.92;;;;;;;;;;5172740;28;20037;-58
2023/12/02 12:02:45;;;;;;;5.13;1.88;;;;;;;;;;5178318;28;20073;-58
2023/12/02 12:05:18;;;;;;;3.25;1.33;;;;;;;;;;5175787;28;20065;-57
2023/12/02 12:07:49;;;;;;;5.15;2.88;;;;;;;;;;5168198;28;20125;-57
2023/12/02 12:10:32;;;;;;;5.68;2.85;;;;;;;;;;5164667;28;20046;-59
2023/12/02 12:13:04;;;;;;;4.47;1.98;;;;;;;;;;5157249;28;20507;-57
2023/12/02 12:15:36;;;;;;;4.97;1.80;;;;;;;;;;5168686;28;20026;-59
2023/12/02 12:18:08;;;;;;;;;;;;;;;;;;5170959;28;20053;-61
2023/12/02 12:20:39;;;;;;;2.58;1.20;;;;;;;;;;5170991;28;20012;-60
2023/12/02 12:23:11;;;;;;;4.57;1.15;;;;;;;;;;5151952;28;20125;-58
2023/12/02 12:25:42;;;;;;;8.45;1.92;;;;;;;;;;5168249;28;20038;-59
2023/12/02 12:28:14;;;;;;;2.78;1.40;;;;;;;;;;5168465;28;20073;-61
2023/12/02 12:30:46;;;;;;;3.00;1.00;;;;;;;;;;5175715;28;20046;-59
2023/12/02 12:33:18;;;;;;;3.10;1.08;;;;;;;;;;5168503;28;20038;-58
2023/12/02 12:35:49;;;;;;;1.50;0.82;;;;;;;;;;5168868;28;20034;-60
2023/12/02 12:38:21;;;;;;;2.50;1.10;;;;;;;;;;5167969;28;20045;-59
2023/12/02 12:40:53;;;;;;;2.33;1.45;;;;;;;;;;5167781;28;20689;-60
2023/12/02 12:43:24;;;;;;;1.98;1.15;;;;;;;;;;5180146;28;20033;-59
2023/12/02 12:45:55;;;;;;;2.05;1.50;;;;;;;;;;5155087;28;20046;-57
2023/12/02 12:48:27;;;;;;;4.03;1.80;;;;;;;;;;5158689;28;20429;-58
2023/12/02 12:50:59;;;;;;;5.07;1.60;;;;;;;;;;5169498;28;20053;-58
2023/12/02 12:53:32;;;;;;;4.95;1.80;;;;;;;;;;5154911;28;20036;-59
2023/12/02 12:56:09;;;;;;;4.00;1.63;;;;;;;;;;5152656;28;20053;-58
2023/12/02 12:59:00;;;;;;;4.70;1.73;;;;;;;;;;5166290;28;20038;-59
2023/12/02 13:01:33;;;;;;;3.90;1.67;;;;;;;;;;5166271;28;20480;-59
2023/12/02 13:04:04;;;;;;;1.98;1.00;;;;;;;;;;5164014;28;20041;-58
2023/12/02 13:06:42;;;;;;;1.95;0.93;;;;;;;;;;5166033;28;20080;-58
2023/12/02 13:09:13;;;;;;;2.03;0.95;;;;;;;;;;5162073;28;20077;-59
2023/12/02 13:12:16;;;;;;;3.08;1.08;;;;;;;;;;5166228;28;20322;-61
2023/12/02 13:14:51;;;;;;;3.47;1.45;;;;;;;;;;5138280;28;20068;-58
2023/12/02 13:17:23;;;;;;;2.00;1.10;;;;;;;;;;5157862;28;20096;-58
2023/12/02 13:19:55;;;;;;;16.92;7.43;;;;;;;;;;5166133;28;20050;-58
2023/12/02 13:22:28;;;;;;;11.63;5.70;;;;;;;;;;5173031;28;20407;-59
2023/12/02 13:24:59;;;;;;;3.80;2.10;;;;;;;;;;5173799;28;20038;-59
2023/12/02 13:27:36;;;;;;;2.13;1.02;;;;;;;;;;5171840;28;20125;-59
2023/12/02 13:30:09;;;;;;;2.05;0.82;;;;;;;;;;5166793;28;20077;-59
2023/12/02 13:32:44;;;;;;;2.30;0.93;;;;;;;;;;5167426;28;20117;-59
2023/12/02 13:35:15;;;;;;;4.70;0.93;;;;;;;;;;5164947;28;20049;-58
2023/12/02 13:37:59;;;;;;;2.50;0.70;;;;;;;;;;5168036;28;20128;-59
2023/12/02 13:40:37;;;;;;;2.60;0.90;;;;;;;;;;5169381;28;20069;-59
2023/12/02 13:43:13;;;;;;;1.90;0.93;;;;;;;;;;5165128;28;20038;-58
2023/12/02 13:45:51;;;;;;;1.98;0.80;;;;;;;;;;5166432;28;20400;-58
2023/12/02 13:48:22;;;;;;;4.40;1.10;;;;;;;;;;5166330;28;20565;-58
2023/12/02 13:51:06;;;;;;;1.17;0.70;;;;;;;;;;5165455;28;20483;-63
2023/12/02 13:53:43;;;;;;;3.80;1.10;;;;;;;;;;5166436;28;20072;-60
2023/12/02 13:56:20;;;;;;;2.83;1.00;;;;;;;;;;5166838;28;20033;-61
2023/12/02 13:59:11;;;;;;;2.03;1.00;;;;;;;;;;5169041;28;20045;-58
2023/12/02 14:01:45;;;;;;;2.42;1.05;;;;;;;;;;5187024;28;20373;-58
2023/12/02 14:04:54;;;;;;;2.42;1.08;;;;;;;;;;5166186;28;20042;-57
2023/12/02 14:07:29;;;;;;;2.60;1.20;;;;;;;;;;5117866;28;20043;-59
2023/12/02 14:10:01;;;;;;;1.58;0.90;;;;;;;;;;5127394;28;20069;-59
2023/12/02 14:12:35;;;;;;;2.17;1.00;;;;;;;;;;5141773;28;20062;-58
2023/12/02 14:15:06;;;;;;;2.25;1.15;;;;;;;;;;5170405;28;20128;-57
2023/12/02 14:17:43;;;;;;;2.40;1.27;;;;;;;;;;5167650;28;20034;-61
2023/12/02 14:20:14;;;;;;;4.82;2.00;;;;;;;;;;5160527;28;20405;-61
2023/12/02 14:22:56;;;;;;;3.00;1.77;;;;;;;;;;5166344;28;20133;-62
2023/12/02 14:25:38;;;;;;;6.72;1.63;;;;;;;;;;5165999;28;20042;-60
2023/12/02 14:28:12;;;;;;;3.85;2.03;;;;;;;;;;5163569;28;20211;-62
2023/12/02 14:30:54;;;;;;;4.78;1.75;;;;;;;;;;5167200;28;20139;-61
2023/12/02 14:33:25;;;;;;;;;;;;;;;;;;5165525;28;20472;-61
2023/12/02 14:35:59;;;;;;;5.30;2.60;;;;;;;;;;5165943;28;19917;-62
2023/12/02 14:38:46;;;;;;;5.22;2.25;;;;;;;;;;5169166;28;20049;-61
2023/12/02 14:41:32;;;;;;;3.67;1.70;;;;;;;;;;5165187;28;20545;-63
2023/12/02 14:44:32;;;;;;;5.93;1.42;;;;;;;;;;5169017;28;20050;-64
2023/12/02 14:47:07;;;;;;;3.70;1.70;;;;;;;;;;5164236;28;20046;-63
2023/12/02 14:49:59;;;;;;;4.93;2.15;;;;;;;;;;5163823;28;20041;-63
2023/12/02 14:52:31;;;;;;;4.32;1.95;;;;;;;;;;5166954;28;20057;-63
2023/12/02 14:55:03;;;;;;;4.75;1.50;;;;;;;;;;5164286;28;20037;-63
2023/12/02 14:57:35;;;;;;;3.53;1.70;;;;;;;;;;5166352;28;20053;-63
2023/12/02 15:00:08;;;;;;;4.82;1.38;;;;;;;;;;5161717;28;20049;-63
2023/12/02 15:02:42;;;;;;;2.83;1.63;;;;;;;;;;5164300;28;20038;-64
2023/12/02 15:05:14;;;;;;;3.05;1.23;;;;;;;;;;5165400;28;20431;-61
2023/12/02 15:07:47;;;;;;;2.97;1.40;;;;;;;;;;5153048;28;20042;-62
2023/12/02 15:10:18;;;;;;;2.78;1.35;;;;;;;;;;5171947;28;20065;-63
2023/12/02 15:12:50;;;;;;;2.83;0.90;;;;;;;;;;5154017;28;20107;-58
2023/12/02 15:15:33;;;;;;;1.63;0.90;;;;;;;;;;5176490;28;20389;-63
2023/12/02 15:18:05;;;;;;;3.47;1.40;;;;;;;;;;5170452;28;20120;-63
2023/12/02 15:20:37;;;;;;;5.25;1.42;;;;;;;;;;5173749;28;20516;-64